sensor_id;sensor_type;location;lat;lon;timestamp;temperature;humidity
15407;DHT22;7802;51.568;6.364;2022-08-06T00:01:16;15.10;99.90
15407;DHT22;7802;51.568;6.364;2022-08-06T00:04:06;12.60;99.90
15407;DHT22;7802;51.568;6.364;2022-08-06T00:06:55;12.60;99.90
15407;DHT22;7802;51.568;6.364;2022-08-06T00:09:43;12.50;99.90
15407;DHT22;7802;51.568;6.364;2022-08-06T00:12:47;12.60;99.90
15407;DHT22;7802;51.568;6.364;2022-08-06T00:15:36;12.50;99.90
15407;DHT22;7802;51.568;6.364;2022-08-06T00:18:44;12.40;99.90
15407;DHT22;7802;51.568;6.364;2022-08-06T00:21:37;12.30;99.90
15407;DHT22;7802;51.568;6.364;2022-08-06T00:24:28;12.30;99.90
15407;DHT22;7802;51.568;6.364;2022-08-06T00:27:18;12.30;99.90
15407;DHT22;7802;51.568;6.364;2022-08-06T00:30:15;12.30;99.90
15407;DHT22;7802;51.568;6.364;2022-08-06T00:33:08;12.30;99.90
15407;DHT22;7802;51.568;6.364;2022-08-06T00:36:02;13.80;99.90
15407;DHT22;7802;51.568;6.364;2022-08-06T00:38:52;12.20;99.90
15407;DHT22;7802;51.568;6.364;2022-08-06T00:41:41;12.10;99.90
15407;DHT22;7802;51.568;6.364;2022-08-06T00:44:33;12.10;99.90
15407;DHT22;7802;51.568;6.364;2022-08-06T00:47:21;12.10;99.90
15407;DHT22;7802;51.568;6.364;2022-08-06T00:50:30;12.20;99.90
15407;DHT22;7802;51.568;6.364;2022-08-06T00:53:19;12.10;99.90
15407;DHT22;7802;51.568;6.364;2022-08-06T00:56:09;12.20;99.90
15407;DHT22;7802;51.568;6.364;2022-08-06T00:58:59;12.10;99.90
15407;DHT22;7802;51.568;6.364;2022-08-06T01:01:50;12.10;99.90
15407;DHT22;7802;51.568;6.364;2022-08-06T01:04:38;12.10;99.90
15407;DHT22;7802;51.568;6.364;2022-08-06T01:07:28;12.00;99.90
15407;DHT22;7802;51.568;6.364;2022-08-06T01:10:36;12.00;99.90
15407;DHT22;7802;51.568;6.364;2022-08-06T01:13:30;12.00;99.90
15407;DHT22;7802;51.568;6.364;2022-08-06T01:16:46;11.80;99.90
15407;DHT22;7802;51.568;6.364;2022-08-06T01:19:46;14.20;99.90
15407;DHT22;7802;51.568;6.364;2022-08-06T01:23:13;11.80;99.90
15407;DHT22;7802;51.568;6.364;2022-08-06T01:26:22;11.80;99.90
15407;DHT22;7802;51.568;6.364;2022-08-06T01:29:21;11.80;99.90
15407;DHT22;7802;51.568;6.364;2022-08-06T01:32:27;11.70;99.90
15407;DHT22;7802;51.568;6.364;2022-08-06T01:35:22;11.60;99.90
15407;DHT22;7802;51.568;6.364;2022-08-06T01:38:35;11.60;99.90
15407;DHT22;7802;51.568;6.364;2022-08-06T01:41:41;11.60;99.90
15407;DHT22;7802;51.568;6.364;2022-08-06T01:44:49;11.60;99.90
15407;DHT22;7802;51.568;6.364;2022-08-06T01:47:41;11.60;99.90
15407;DHT22;7802;51.568;6.364;2022-08-06T01:50:44;11.50;99.90
15407;DHT22;7802;51.568;6.364;2022-08-06T01:53:38;11.50;99.90
15407;DHT22;7802;51.568;6.364;2022-08-06T01:56:51;11.60;99.90
15407;DHT22;7802;51.568;6.364;2022-08-06T01:59:49;11.60;99.90
15407;DHT22;7802;51.568;6.364;2022-08-06T02:02:43;11.60;99.90
15407;DHT22;7802;51.568;6.364;2022-08-06T02:05:33;13.90;99.90
15407;DHT22;7802;51.568;6.364;2022-08-06T02:08:40;11.50;99.90
15407;DHT22;7802;51.568;6.364;2022-08-06T02:11:31;11.50;99.90
15407;DHT22;7802;51.568;6.364;2022-08-06T02:14:44;14.10;99.90
15407;DHT22;7802;51.568;6.364;2022-08-06T02:17:39;11.40;99.90
15407;DHT22;7802;51.568;6.364;2022-08-06T02:20:53;12.10;99.90
15407;DHT22;7802;51.568;6.364;2022-08-06T02:23:43;11.30;99.90
15407;DHT22;7802;51.568;6.364;2022-08-06T02:26:34;11.30;99.90
15407;DHT22;7802;51.568;6.364;2022-08-06T02:29:26;11.30;99.90
15407;DHT22;7802;51.568;6.364;2022-08-06T02:32:34;11.30;99.90
15407;DHT22;7802;51.568;6.364;2022-08-06T02:35:31;11.40;99.90
15407;DHT22;7802;51.568;6.364;2022-08-06T02:38:28;12.40;99.90
15407;DHT22;7802;51.568;6.364;2022-08-06T02:41:23;11.50;99.90
15407;DHT22;7802;51.568;6.364;2022-08-06T02:44:22;11.50;99.90
15407;DHT22;7802;51.568;6.364;2022-08-06T02:47:17;11.50;99.90
15407;DHT22;7802;51.568;6.364;2022-08-06T02:50:34;11.70;99.90
15407;DHT22;7802;51.568;6.364;2022-08-06T02:53:26;11.50;99.90
15407;DHT22;7802;51.568;6.364;2022-08-06T02:56:25;11.40;99.90
15407;DHT22;7802;51.568;6.364;2022-08-06T02:59:29;11.40;99.90
15407;DHT22;7802;51.568;6.364;2022-08-06T03:02:26;11.40;99.90
15407;DHT22;7802;51.568;6.364;2022-08-06T03:05:19;11.40;99.90
15407;DHT22;7802;51.568;6.364;2022-08-06T03:08:31;11.40;99.90
15407;DHT22;7802;51.568;6.364;2022-08-06T03:11:24;11.30;99.90
15407;DHT22;7802;51.568;6.364;2022-08-06T03:14:19;11.40;99.90
15407;DHT22;7802;51.568;6.364;2022-08-06T03:17:30;11.50;99.90
15407;DHT22;7802;51.568;6.364;2022-08-06T03:20:22;11.50;99.90
15407;DHT22;7802;51.568;6.364;2022-08-06T03:23:12;11.40;99.90
15407;DHT22;7802;51.568;6.364;2022-08-06T03:26:03;11.40;99.90
15407;DHT22;7802;51.568;6.364;2022-08-06T03:28:58;11.30;99.90
15407;DHT22;7802;51.568;6.364;2022-08-06T03:31:47;11.30;99.90
15407;DHT22;7802;51.568;6.364;2022-08-06T03:34:57;11.20;99.90
15407;DHT22;7802;51.568;6.364;2022-08-06T03:37:48;13.20;99.90
15407;DHT22;7802;51.568;6.364;2022-08-06T03:40:48;12.10;99.90
15407;DHT22;7802;51.568;6.364;2022-08-06T03:43:39;11.10;99.90
15407;DHT22;7802;51.568;6.364;2022-08-06T03:46:52;11.10;99.90
15407;DHT22;7802;51.568;6.364;2022-08-06T03:49:48;11.10;99.90
15407;DHT22;7802;51.568;6.364;2022-08-06T03:52:41;11.00;99.90
15407;DHT22;7802;51.568;6.364;2022-08-06T03:55:37;13.30;99.90
15407;DHT22;7802;51.568;6.364;2022-08-06T03:58:28;11.00;99.90
15407;DHT22;7802;51.568;6.364;2022-08-06T04:01:22;11.00;99.90
15407;DHT22;7802;51.568;6.364;2022-08-06T04:04:11;11.00;99.90
15407;DHT22;7802;51.568;6.364;2022-08-06T04:07:14;11.40;99.90
15407;DHT22;7802;51.568;6.364;2022-08-06T04:10:10;11.00;99.90
15407;DHT22;7802;51.568;6.364;2022-08-06T04:13:10;12.30;99.90
15407;DHT22;7802;51.568;6.364;2022-08-06T04:16:20;10.90;99.90
15407;DHT22;7802;51.568;6.364;2022-08-06T04:19:20;10.90;99.90
15407;DHT22;7802;51.568;6.364;2022-08-06T04:22:21;11.00;99.90
15407;DHT22;7802;51.568;6.364;2022-08-06T04:25:34;13.30;99.90
15407;DHT22;7802;51.568;6.364;2022-08-06T04:28:24;11.00;99.90
15407;DHT22;7802;51.568;6.364;2022-08-06T04:31:15;11.00;99.90
15407;DHT22;7802;51.568;6.364;2022-08-06T04:34:26;11.00;99.90
15407;DHT22;7802;51.568;6.364;2022-08-06T04:37:15;11.00;99.90
15407;DHT22;7802;51.568;6.364;2022-08-06T04:40:08;11.00;99.90
15407;DHT22;7802;51.568;6.364;2022-08-06T04:43:02;10.90;99.90
15407;DHT22;7802;51.568;6.364;2022-08-06T04:45:54;11.00;99.90
15407;DHT22;7802;51.568;6.364;2022-08-06T04:49:03;11.10;99.90
15407;DHT22;7802;51.568;6.364;2022-08-06T04:51:54;11.20;99.90
15407;DHT22;7802;51.568;6.364;2022-08-06T04:55:04;11.20;99.90
15407;DHT22;7802;51.568;6.364;2022-08-06T04:58:15;11.20;99.90
15407;DHT22;7802;51.568;6.364;2022-08-06T05:01:09;12.70;99.90
15407;DHT22;7802;51.568;6.364;2022-08-06T05:03:59;11.20;99.90
15407;DHT22;7802;51.568;6.364;2022-08-06T05:07:15;11.20;99.90
15407;DHT22;7802;51.568;6.364;2022-08-06T05:10:04;11.30;99.90
15407;DHT22;7802;51.568;6.364;2022-08-06T05:12:57;11.40;99.90
15407;DHT22;7802;51.568;6.364;2022-08-06T05:15:50;11.50;99.90
15407;DHT22;7802;51.568;6.364;2022-08-06T05:18:43;12.80;99.90
15407;DHT22;7802;51.568;6.364;2022-08-06T05:21:53;11.80;99.90
15407;DHT22;7802;51.568;6.364;2022-08-06T05:25:00;11.70;99.90
15407;DHT22;7802;51.568;6.364;2022-08-06T05:28:06;11.80;99.90
15407;DHT22;7802;51.568;6.364;2022-08-06T05:30:57;11.80;99.90
15407;DHT22;7802;51.568;6.364;2022-08-06T05:33:46;11.90;99.90
15407;DHT22;7802;51.568;6.364;2022-08-06T05:36:35;12.00;99.90
15407;DHT22;7802;51.568;6.364;2022-08-06T05:39:23;12.10;99.90
15407;DHT22;7802;51.568;6.364;2022-08-06T05:42:34;12.20;99.90
15407;DHT22;7802;51.568;6.364;2022-08-06T05:45:23;12.30;99.90
15407;DHT22;7802;51.568;6.364;2022-08-06T05:48:13;12.40;99.90
15407;DHT22;7802;51.568;6.364;2022-08-06T05:51:23;12.50;99.90
15407;DHT22;7802;51.568;6.364;2022-08-06T05:54:35;12.70;99.90
15407;DHT22;7802;51.568;6.364;2022-08-06T05:57:33;12.80;99.90
15407;DHT22;7802;51.568;6.364;2022-08-06T06:00:31;12.90;99.90
15407;DHT22;7802;51.568;6.364;2022-08-06T06:03:30;13.00;99.90
15407;DHT22;7802;51.568;6.364;2022-08-06T06:06:21;13.10;99.90
15407;DHT22;7802;51.568;6.364;2022-08-06T06:09:11;13.20;99.90
15407;DHT22;7802;51.568;6.364;2022-08-06T06:12:01;13.30;99.90
15407;DHT22;7802;51.568;6.364;2022-08-06T06:14:52;13.40;99.90
15407;DHT22;7802;51.568;6.364;2022-08-06T06:18:02;13.60;99.90
15407;DHT22;7802;51.568;6.364;2022-08-06T06:21:00;13.70;99.90
15407;DHT22;7802;51.568;6.364;2022-08-06T06:24:17;13.80;99.90
15407;DHT22;7802;51.568;6.364;2022-08-06T06:27:11;14.00;99.90
15407;DHT22;7802;51.568;6.364;2022-08-06T06:30:30;14.10;99.90
15407;DHT22;7802;51.568;6.364;2022-08-06T06:33:31;14.30;99.90
15407;DHT22;7802;51.568;6.364;2022-08-06T06:36:38;14.50;99.90
15407;DHT22;7802;51.568;6.364;2022-08-06T06:39:36;14.70;99.90
15407;DHT22;7802;51.568;6.364;2022-08-06T06:42:36;14.90;99.90
15407;DHT22;7802;51.568;6.364;2022-08-06T06:45:32;15.00;99.90
15407;DHT22;7802;51.568;6.364;2022-08-06T06:48:45;15.20;99.90
15407;DHT22;7802;51.568;6.364;2022-08-06T06:51:39;15.50;99.90
15407;DHT22;7802;51.568;6.364;2022-08-06T06:54:48;16.00;99.90
15407;DHT22;7802;51.568;6.364;2022-08-06T06:58:00;16.90;99.90
15407;DHT22;7802;51.568;6.364;2022-08-06T07:00:52;17.70;99.90
15407;DHT22;7802;51.568;6.364;2022-08-06T07:04:05;19.70;99.90
15407;DHT22;7802;51.568;6.364;2022-08-06T07:06:58;18.50;99.90
15407;DHT22;7802;51.568;6.364;2022-08-06T07:10:02;18.60;99.90
15407;DHT22;7802;51.568;6.364;2022-08-06T07:12:58;18.80;99.90
15407;DHT22;7802;51.568;6.364;2022-08-06T07:15:47;19.10;99.90
15407;DHT22;7802;51.568;6.364;2022-08-06T07:18:42;19.10;99.90
15407;DHT22;7802;51.568;6.364;2022-08-06T07:21:41;19.10;99.90
15407;DHT22;7802;51.568;6.364;2022-08-06T07:24:40;18.90;99.90
15407;DHT22;7802;51.568;6.364;2022-08-06T07:27:37;18.90;99.90
15407;DHT22;7802;51.568;6.364;2022-08-06T07:30:37;19.10;99.90
15407;DHT22;7802;51.568;6.364;2022-08-06T07:33:27;19.30;99.90
15407;DHT22;7802;51.568;6.364;2022-08-06T07:36:42;19.60;99.90
15407;DHT22;7802;51.568;6.364;2022-08-06T07:39:44;19.90;99.90
15407;DHT22;7802;51.568;6.364;2022-08-06T07:42:35;20.00;99.90
15407;DHT22;7802;51.568;6.364;2022-08-06T07:45:28;20.20;99.90
15407;DHT22;7802;51.568;6.364;2022-08-06T07:48:40;20.40;99.90
15407;DHT22;7802;51.568;6.364;2022-08-06T07:51:43;21.30;99.90
15407;DHT22;7802;51.568;6.364;2022-08-06T07:54:32;20.90;99.90
15407;DHT22;7802;51.568;6.364;2022-08-06T07:57:21;21.20;99.90
15407;DHT22;7802;51.568;6.364;2022-08-06T08:00:12;21.40;99.90
15407;DHT22;7802;51.568;6.364;2022-08-06T08:03:04;21.60;99.90
15407;DHT22;7802;51.568;6.364;2022-08-06T08:06:30;21.30;99.90
15407;DHT22;7802;51.568;6.364;2022-08-06T08:09:32;20.60;99.90
15407;DHT22;7802;51.568;6.364;2022-08-06T08:12:42;20.40;99.90
15407;DHT22;7802;51.568;6.364;2022-08-06T08:15:38;20.40;99.90
15407;DHT22;7802;51.568;6.364;2022-08-06T08:18:30;20.30;99.90
15407;DHT22;7802;51.568;6.364;2022-08-06T08:21:20;20.20;99.90
15407;DHT22;7802;51.568;6.364;2022-08-06T08:24:09;20.30;99.90
15407;DHT22;7802;51.568;6.364;2022-08-06T08:26:59;20.10;99.90
15407;DHT22;7802;51.568;6.364;2022-08-06T08:30:09;20.30;99.90
15407;DHT22;7802;51.568;6.364;2022-08-06T08:33:01;20.40;99.90
15407;DHT22;7802;51.568;6.364;2022-08-06T08:35:57;20.20;99.90
15407;DHT22;7802;51.568;6.364;2022-08-06T08:38:48;20.10;99.90
15407;DHT22;7802;51.568;6.364;2022-08-06T08:41:44;19.90;99.90
15407;DHT22;7802;51.568;6.364;2022-08-06T08:44:38;19.80;99.90
15407;DHT22;7802;51.568;6.364;2022-08-06T08:47:28;19.70;99.90
15407;DHT22;7802;51.568;6.364;2022-08-06T08:50:40;19.40;99.90
15407;DHT22;7802;51.568;6.364;2022-08-06T08:53:34;19.40;99.90
15407;DHT22;7802;51.568;6.364;2022-08-06T08:56:33;19.40;99.90
15407;DHT22;7802;51.568;6.364;2022-08-06T08:59:43;19.40;99.90
15407;DHT22;7802;51.568;6.364;2022-08-06T09:02:47;19.40;99.90
15407;DHT22;7802;51.568;6.364;2022-08-06T09:05:37;19.50;99.90
15407;DHT22;7802;51.568;6.364;2022-08-06T09:08:33;19.60;99.90
15407;DHT22;7802;51.568;6.364;2022-08-06T09:11:43;20.10;99.90
15407;DHT22;7802;51.568;6.364;2022-08-06T09:14:53;20.50;99.90
15407;DHT22;7802;51.568;6.364;2022-08-06T09:17:42;20.30;99.90
15407;DHT22;7802;51.568;6.364;2022-08-06T09:20:51;20.20;99.90
15407;DHT22;7802;51.568;6.364;2022-08-06T09:23:40;20.20;99.90
15407;DHT22;7802;51.568;6.364;2022-08-06T09:27:05;20.10;99.90
15407;DHT22;7802;51.568;6.364;2022-08-06T09:30:16;20.10;99.90
15407;DHT22;7802;51.568;6.364;2022-08-06T09:33:16;20.10;99.90
15407;DHT22;7802;51.568;6.364;2022-08-06T09:36:26;20.10;99.90
15407;DHT22;7802;51.568;6.364;2022-08-06T09:39:16;20.10;99.90
15407;DHT22;7802;51.568;6.364;2022-08-06T09:42:39;20.00;99.90
15407;DHT22;7802;51.568;6.364;2022-08-06T09:45:31;20.00;99.90
15407;DHT22;7802;51.568;6.364;2022-08-06T09:48:29;19.90;99.90
15407;DHT22;7802;51.568;6.364;2022-08-06T09:51:21;20.10;99.90
15407;DHT22;7802;51.568;6.364;2022-08-06T09:54:36;20.30;99.90
15407;DHT22;7802;51.568;6.364;2022-08-06T09:57:28;21.00;99.90
15407;DHT22;7802;51.568;6.364;2022-08-06T10:00:31;21.40;99.90
15407;DHT22;7802;51.568;6.364;2022-08-06T10:03:20;21.90;99.90
15407;DHT22;7802;51.568;6.364;2022-08-06T10:06:29;22.30;99.90
15407;DHT22;7802;51.568;6.364;2022-08-06T10:09:17;22.60;99.90
15407;DHT22;7802;51.568;6.364;2022-08-06T10:12:26;23.00;99.90
15407;DHT22;7802;51.568;6.364;2022-08-06T10:15:28;23.40;99.90
15407;DHT22;7802;51.568;6.364;2022-08-06T10:18:40;23.30;99.90
15407;DHT22;7802;51.568;6.364;2022-08-06T10:21:45;23.20;99.90
15407;DHT22;7802;51.568;6.364;2022-08-06T10:24:40;22.90;99.90
15407;DHT22;7802;51.568;6.364;2022-08-06T10:27:36;22.30;99.90
15407;DHT22;7802;51.568;6.364;2022-08-06T10:30:26;22.20;99.90
15407;DHT22;7802;51.568;6.364;2022-08-06T10:33:23;22.40;99.90
15407;DHT22;7802;51.568;6.364;2022-08-06T10:36:24;22.80;99.90
15407;DHT22;7802;51.568;6.364;2022-08-06T10:39:23;23.00;99.90
15407;DHT22;7802;51.568;6.364;2022-08-06T10:42:34;23.00;99.90
15407;DHT22;7802;51.568;6.364;2022-08-06T10:45:23;22.90;99.90
15407;DHT22;7802;51.568;6.364;2022-08-06T10:48:15;23.10;99.90
15407;DHT22;7802;51.568;6.364;2022-08-06T10:51:26;23.40;99.90
15407;DHT22;7802;51.568;6.364;2022-08-06T10:54:36;23.70;99.90
15407;DHT22;7802;51.568;6.364;2022-08-06T10:57:25;23.70;99.90
15407;DHT22;7802;51.568;6.364;2022-08-06T11:00:23;23.40;99.90
15407;DHT22;7802;51.568;6.364;2022-08-06T11:03:17;23.20;99.90
15407;DHT22;7802;51.568;6.364;2022-08-06T11:06:22;23.00;99.90
15407;DHT22;7802;51.568;6.364;2022-08-06T11:09:41;23.20;99.90
15407;DHT22;7802;51.568;6.364;2022-08-06T11:12:52;23.30;99.90
15407;DHT22;7802;51.568;6.364;2022-08-06T11:15:41;23.50;99.90
15407;DHT22;7802;51.568;6.364;2022-08-06T11:18:31;23.70;99.90
15407;DHT22;7802;51.568;6.364;2022-08-06T11:21:35;23.50;99.90
15407;DHT22;7802;51.568;6.364;2022-08-06T11:24:52;23.20;99.90
15407;DHT22;7802;51.568;6.364;2022-08-06T11:27:54;23.40;99.90
15407;DHT22;7802;51.568;6.364;2022-08-06T11:30:53;23.50;99.60
15407;DHT22;7802;51.568;6.364;2022-08-06T11:52:42;23.70;99.50
15407;DHT22;7802;51.568;6.364;2022-08-06T11:55:31;23.80;99.90
15407;DHT22;7802;51.568;6.364;2022-08-06T11:58:25;23.90;99.90
15407;DHT22;7802;51.568;6.364;2022-08-06T12:01:16;23.80;99.90
15407;DHT22;7802;51.568;6.364;2022-08-06T12:04:39;23.90;98.70
15407;DHT22;7802;51.568;6.364;2022-08-06T12:07:31;23.70;99.00
15407;DHT22;7802;51.568;6.364;2022-08-06T12:10:24;23.70;98.80
15407;DHT22;7802;51.568;6.364;2022-08-06T12:13:36;23.70;97.20
15407;DHT22;7802;51.568;6.364;2022-08-06T12:16:44;23.50;99.20
15407;DHT22;7802;51.568;6.364;2022-08-06T12:19:44;23.80;98.80
15407;DHT22;7802;51.568;6.364;2022-08-06T12:22:48;23.90;98.30
15407;DHT22;7802;51.568;6.364;2022-08-06T12:25:39;24.10;99.30
15407;DHT22;7802;51.568;6.364;2022-08-06T12:28:33;23.80;97.20
15407;DHT22;7802;51.568;6.364;2022-08-06T12:31:30;23.40;96.40
15407;DHT22;7802;51.568;6.364;2022-08-06T12:34:25;22.90;97.00
15407;DHT22;7802;51.568;6.364;2022-08-06T12:37:18;22.60;98.40
15407;DHT22;7802;51.568;6.364;2022-08-06T12:40:10;22.20;98.00
15407;DHT22;7802;51.568;6.364;2022-08-06T12:43:29;22.10;98.80
15407;DHT22;7802;51.568;6.364;2022-08-06T12:46:38;22.20;99.30
15407;DHT22;7802;51.568;6.364;2022-08-06T12:49:30;22.30;97.40
15407;DHT22;7802;51.568;6.364;2022-08-06T12:52:29;22.50;98.10
15407;DHT22;7802;51.568;6.364;2022-08-06T12:55:19;22.70;96.90
15407;DHT22;7802;51.568;6.364;2022-08-06T12:58:08;22.80;96.80
15407;DHT22;7802;51.568;6.364;2022-08-06T13:01:22;22.80;96.60
15407;DHT22;7802;51.568;6.364;2022-08-06T13:04:31;22.70;97.10
15407;DHT22;7802;51.568;6.364;2022-08-06T13:07:20;22.60;97.80
15407;DHT22;7802;51.568;6.364;2022-08-06T13:10:10;22.60;97.40
15407;DHT22;7802;51.568;6.364;2022-08-06T13:13:19;22.30;97.40
15407;DHT22;7802;51.568;6.364;2022-08-06T13:16:39;22.50;97.30
15407;DHT22;7802;51.568;6.364;2022-08-06T13:19:50;22.70;96.90
15407;DHT22;7802;51.568;6.364;2022-08-06T13:22:49;22.60;96.90
15407;DHT22;7802;51.568;6.364;2022-08-06T13:25:42;22.70;97.90
15407;DHT22;7802;51.568;6.364;2022-08-06T13:28:39;22.80;98.10
15407;DHT22;7802;51.568;6.364;2022-08-06T13:31:59;22.90;97.00
15407;DHT22;7802;51.568;6.364;2022-08-06T13:34:50;23.00;96.50
15407;DHT22;7802;51.568;6.364;2022-08-06T13:37:42;23.10;97.60
15407;DHT22;7802;51.568;6.364;2022-08-06T13:40:52;23.30;96.80
15407;DHT22;7802;51.568;6.364;2022-08-06T13:43:50;23.40;96.30
15407;DHT22;7802;51.568;6.364;2022-08-06T13:46:43;23.40;95.80
15407;DHT22;7802;51.568;6.364;2022-08-06T13:49:39;23.30;96.00
15407;DHT22;7802;51.568;6.364;2022-08-06T13:52:49;23.20;96.10
15407;DHT22;7802;51.568;6.364;2022-08-06T13:55:48;23.10;96.70
15407;DHT22;7802;51.568;6.364;2022-08-06T13:58:49;23.10;96.80
15407;DHT22;7802;51.568;6.364;2022-08-06T14:01:38;23.10;96.20
15407;DHT22;7802;51.568;6.364;2022-08-06T14:04:32;23.00;96.30
15407;DHT22;7802;51.568;6.364;2022-08-06T14:07:22;22.90;96.70
15407;DHT22;7802;51.568;6.364;2022-08-06T14:10:19;23.80;96.30
15407;DHT22;7802;51.568;6.364;2022-08-06T14:13:16;22.80;96.80
15407;DHT22;7802;51.568;6.364;2022-08-06T14:16:07;22.70;96.20
15407;DHT22;7802;51.568;6.364;2022-08-06T14:18:55;22.50;97.30
15407;DHT22;7802;51.568;6.364;2022-08-06T14:21:47;22.40;97.10
15407;DHT22;7802;51.568;6.364;2022-08-06T14:24:37;22.40;98.30
15407;DHT22;7802;51.568;6.364;2022-08-06T14:27:26;22.50;99.60
15407;DHT22;7802;51.568;6.364;2022-08-06T14:30:18;22.60;96.60
15407;DHT22;7802;51.568;6.364;2022-08-06T14:33:19;22.60;97.00
15407;DHT22;7802;51.568;6.364;2022-08-06T14:36:13;22.70;97.10
15407;DHT22;7802;51.568;6.364;2022-08-06T14:39:05;23.00;98.20
15407;DHT22;7802;51.568;6.364;2022-08-06T14:42:16;22.90;98.40
15407;DHT22;7802;51.568;6.364;2022-08-06T14:45:25;23.00;98.70
15407;DHT22;7802;51.568;6.364;2022-08-06T14:48:25;23.10;99.90
15407;DHT22;7802;51.568;6.364;2022-08-06T14:51:17;22.90;98.60
15407;DHT22;7802;51.568;6.364;2022-08-06T14:54:10;22.90;99.10
15407;DHT22;7802;51.568;6.364;2022-08-06T14:57:02;22.90;99.10
15407;DHT22;7802;51.568;6.364;2022-08-06T15:00:05;23.00;98.70
15407;DHT22;7802;51.568;6.364;2022-08-06T15:02:53;23.00;99.90
15407;DHT22;7802;51.568;6.364;2022-08-06T15:05:42;22.80;98.40
15407;DHT22;7802;51.568;6.364;2022-08-06T15:08:51;22.40;98.40
15407;DHT22;7802;51.568;6.364;2022-08-06T15:11:40;22.40;98.80
15407;DHT22;7802;51.568;6.364;2022-08-06T15:14:47;22.30;97.70
15407;DHT22;7802;51.568;6.364;2022-08-06T15:17:39;22.20;97.90
15407;DHT22;7802;51.568;6.364;2022-08-06T15:20:47;22.00;97.70
15407;DHT22;7802;51.568;6.364;2022-08-06T15:23:37;22.10;99.30
15407;DHT22;7802;51.568;6.364;2022-08-06T15:26:40;22.10;97.00
15407;DHT22;7802;51.568;6.364;2022-08-06T15:29:35;22.20;97.70
15407;DHT22;7802;51.568;6.364;2022-08-06T15:32:24;22.30;97.00
15407;DHT22;7802;51.568;6.364;2022-08-06T15:35:15;22.50;96.60
15407;DHT22;7802;51.568;6.364;2022-08-06T15:38:03;22.50;96.70
15407;DHT22;7802;51.568;6.364;2022-08-06T15:40:54;22.70;97.60
15407;DHT22;7802;51.568;6.364;2022-08-06T15:43:43;22.90;98.40
15407;DHT22;7802;51.568;6.364;2022-08-06T15:46:38;23.00;97.00
15407;DHT22;7802;51.568;6.364;2022-08-06T15:49:32;23.00;96.40
15407;DHT22;7802;51.568;6.364;2022-08-06T15:52:44;23.00;96.10
15407;DHT22;7802;51.568;6.364;2022-08-06T15:55:32;22.90;95.90
15407;DHT22;7802;51.568;6.364;2022-08-06T15:58:24;22.80;95.50
15407;DHT22;7802;51.568;6.364;2022-08-06T16:01:16;22.90;95.30
15407;DHT22;7802;51.568;6.364;2022-08-06T16:04:25;22.80;94.00
15407;DHT22;7802;51.568;6.364;2022-08-06T16:07:14;22.80;94.90
15407;DHT22;7802;51.568;6.364;2022-08-06T16:10:08;22.70;94.60
15407;DHT22;7802;51.568;6.364;2022-08-06T16:13:17;22.60;95.90
15407;DHT22;7802;51.568;6.364;2022-08-06T16:16:06;22.20;95.90
15407;DHT22;7802;51.568;6.364;2022-08-06T16:18:58;22.10;96.00
15407;DHT22;7802;51.568;6.364;2022-08-06T16:21:48;22.00;96.50
15407;DHT22;7802;51.568;6.364;2022-08-06T16:24:37;22.10;97.00
15407;DHT22;7802;51.568;6.364;2022-08-06T16:27:28;22.00;95.90
15407;DHT22;7802;51.568;6.364;2022-08-06T16:30:26;21.90;95.90
15407;DHT22;7802;51.568;6.364;2022-08-06T16:33:32;21.80;96.00
15407;DHT22;7802;51.568;6.364;2022-08-06T16:36:40;21.70;95.70
15407;DHT22;7802;51.568;6.364;2022-08-06T16:39:29;21.60;97.10
15407;DHT22;7802;51.568;6.364;2022-08-06T16:42:22;21.50;97.60
15407;DHT22;7802;51.568;6.364;2022-08-06T16:45:13;21.40;98.30
15407;DHT22;7802;51.568;6.364;2022-08-06T16:48:02;21.30;98.50
15407;DHT22;7802;51.568;6.364;2022-08-06T16:51:11;21.10;98.60
15407;DHT22;7802;51.568;6.364;2022-08-06T16:54:26;21.00;99.00
15407;DHT22;7802;51.568;6.364;2022-08-06T16:57:15;21.40;99.30
15407;DHT22;7802;51.568;6.364;2022-08-06T17:00:05;20.80;99.90
15407;DHT22;7802;51.568;6.364;2022-08-06T17:02:55;20.80;99.50
15407;DHT22;7802;51.568;6.364;2022-08-06T17:05:44;20.80;99.60
15407;DHT22;7802;51.568;6.364;2022-08-06T17:08:52;20.80;99.80
15407;DHT22;7802;51.568;6.364;2022-08-06T17:11:41;20.70;99.90
15407;DHT22;7802;51.568;6.364;2022-08-06T17:14:49;20.70;99.90
15407;DHT22;7802;51.568;6.364;2022-08-06T17:17:39;20.60;99.90
15407;DHT22;7802;51.568;6.364;2022-08-06T17:20:58;20.60;99.90
15407;DHT22;7802;51.568;6.364;2022-08-06T17:24:11;20.60;99.90
15407;DHT22;7802;51.568;6.364;2022-08-06T17:27:23;20.60;99.90
15407;DHT22;7802;51.568;6.364;2022-08-06T17:30:32;20.50;99.90
15407;DHT22;7802;51.568;6.364;2022-08-06T17:33:21;20.50;99.90
15407;DHT22;7802;51.568;6.364;2022-08-06T17:36:11;20.50;99.90
15407;DHT22;7802;51.568;6.364;2022-08-06T17:39:18;20.50;99.90
15407;DHT22;7802;51.568;6.364;2022-08-06T17:42:26;20.40;99.90
15407;DHT22;7802;51.568;6.364;2022-08-06T17:45:14;20.50;99.90
15407;DHT22;7802;51.568;6.364;2022-08-06T17:48:03;20.50;99.90
15407;DHT22;7802;51.568;6.364;2022-08-06T17:50:52;20.60;99.90
15407;DHT22;7802;51.568;6.364;2022-08-06T17:53:42;20.60;99.40
15407;DHT22;7802;51.568;6.364;2022-08-06T17:56:41;20.60;99.30
15407;DHT22;7802;51.568;6.364;2022-08-06T17:59:32;20.50;99.80
15407;DHT22;7802;51.568;6.364;2022-08-06T18:02:31;20.50;99.90
15407;DHT22;7802;51.568;6.364;2022-08-06T18:05:19;20.50;99.90
15407;DHT22;7802;51.568;6.364;2022-08-06T18:08:23;20.30;99.90
15407;DHT22;7802;51.568;6.364;2022-08-06T18:11:23;20.30;99.90
15407;DHT22;7802;51.568;6.364;2022-08-06T18:14:12;20.20;99.90
15407;DHT22;7802;51.568;6.364;2022-08-06T18:17:18;20.10;99.90
15407;DHT22;7802;51.568;6.364;2022-08-06T18:20:08;20.10;99.90
15407;DHT22;7802;51.568;6.364;2022-08-06T18:22:57;20.00;99.90
15407;DHT22;7802;51.568;6.364;2022-08-06T18:25:49;20.00;99.90
15407;DHT22;7802;51.568;6.364;2022-08-06T18:28:45;20.00;99.90
15407;DHT22;7802;51.568;6.364;2022-08-06T18:31:37;19.90;99.90
15407;DHT22;7802;51.568;6.364;2022-08-06T18:34:46;19.80;99.90
15407;DHT22;7802;51.568;6.364;2022-08-06T18:37:39;19.70;99.90
15407;DHT22;7802;51.568;6.364;2022-08-06T18:40:47;19.70;99.90
15407;DHT22;7802;51.568;6.364;2022-08-06T18:43:49;19.50;99.90
15407;DHT22;7802;51.568;6.364;2022-08-06T18:46:44;19.40;99.90
15407;DHT22;7802;51.568;6.364;2022-08-06T18:49:50;19.30;99.90
15407;DHT22;7802;51.568;6.364;2022-08-06T18:52:41;19.30;99.90
15407;DHT22;7802;51.568;6.364;2022-08-06T18:55:31;19.20;99.90
15407;DHT22;7802;51.568;6.364;2022-08-06T18:58:39;19.20;99.90
15407;DHT22;7802;51.568;6.364;2022-08-06T19:01:34;19.00;99.90
15407;DHT22;7802;51.568;6.364;2022-08-06T19:04:26;18.90;99.90
15407;DHT22;7802;51.568;6.364;2022-08-06T19:07:16;18.90;99.90
15407;DHT22;7802;51.568;6.364;2022-08-06T19:10:13;18.50;99.90
15407;DHT22;7802;51.568;6.364;2022-08-06T19:13:04;18.40;99.90
15407;DHT22;7802;51.568;6.364;2022-08-06T19:15:57;18.30;99.90
15407;DHT22;7802;51.568;6.364;2022-08-06T19:18:46;18.20;99.90
15407;DHT22;7802;51.568;6.364;2022-08-06T19:21:43;18.10;99.90